createdAt,value
2022-11-25T00:00:45.475Z,44.45
2022-11-25T00:03:11.825Z,43.97
2022-11-25T00:05:38.142Z,43.64
2022-11-25T00:08:04.515Z,44.43
2022-11-25T00:10:30.845Z,45.16
2022-11-25T00:12:57.118Z,44.85
2022-11-25T00:15:23.401Z,44.80
2022-11-25T00:17:49.677Z,44.90
2022-11-25T00:20:16.012Z,44.84
2022-11-25T00:22:42.269Z,44.69
2022-11-25T00:25:08.739Z,44.09
2022-11-25T00:27:35.008Z,44.74
2022-11-25T00:30:01.270Z,45.37
2022-11-25T00:32:27.551Z,45.21
2022-11-25T00:34:53.825Z,45.36
2022-11-25T00:37:20.125Z,45.36
2022-11-25T00:39:46.394Z,45.18
2022-11-25T00:42:31.069Z,45.25
2022-11-25T00:44:57.375Z,45.65
2022-11-25T00:47:23.703Z,44.62
2022-11-25T00:49:50.789Z,44.90
2022-11-25T00:52:20.447Z,44.90
2022-11-25T00:54:47.561Z,45.54
2022-11-25T00:57:14.047Z,44.67
2022-11-25T00:59:40.305Z,44.64
2022-11-25T01:02:06.766Z,45.02
2022-11-25T01:04:33.224Z,45.03
2022-11-25T01:07:00.581Z,44.78
2022-11-25T01:09:27.097Z,45.50
2022-11-25T01:11:53.361Z,45.26
2022-11-25T01:14:19.931Z,44.92
2022-11-25T01:16:46.257Z,45.05
2022-11-25T01:19:12.589Z,44.78
2022-11-25T01:21:38.848Z,45.05
2022-11-25T01:24:05.579Z,44.26
2022-11-25T01:26:32.012Z,45.34
2022-11-25T01:28:59.063Z,45.94
2022-11-25T01:31:25.841Z,45.33
2022-11-25T01:33:52.990Z,45.32
2022-11-25T01:36:19.293Z,45.39
2022-11-25T01:38:45.629Z,45.13
2022-11-25T01:41:12.872Z,45.51
2022-11-25T01:43:39.264Z,45.51
2022-11-25T01:46:24.209Z,45.99
2022-11-25T01:49:00.323Z,45.11
2022-11-25T01:51:41.762Z,44.18
2022-11-25T01:54:08.715Z,44.48
2022-11-25T01:56:36.232Z,44.50
2022-11-25T01:59:02.513Z,44.78
2022-11-25T02:01:28.875Z,44.52
2022-11-25T02:03:55.194Z,44.38
2022-11-25T02:06:22.967Z,44.32
2022-11-25T02:08:50.405Z,44.57
2022-11-25T02:11:16.706Z,45.35
2022-11-25T02:13:43.258Z,45.50
2022-11-25T02:16:09.614Z,46.08
2022-11-25T02:18:35.931Z,45.97
2022-11-25T02:21:02.234Z,45.79
2022-11-25T02:23:28.479Z,45.11
2022-11-25T02:25:54.825Z,45.25
2022-11-25T02:28:21.740Z,44.48
2022-11-25T02:30:48.048Z,44.00
2022-11-25T02:33:14.676Z,44.10
2022-11-25T02:35:47.481Z,44.41
2022-11-25T02:38:18.808Z,44.79
2022-11-25T02:40:46.291Z,44.68
2022-11-25T02:43:12.569Z,45.16
2022-11-25T02:45:43.414Z,45.28
2022-11-25T02:48:09.888Z,44.59
2022-11-25T02:50:36.194Z,44.94
2022-11-25T02:53:02.466Z,45.14
2022-11-25T02:55:28.737Z,45.00
2022-11-25T02:57:55.007Z,45.43
2022-11-25T03:00:21.335Z,45.40
2022-11-25T03:02:47.788Z,45.21
2022-11-25T03:05:14.307Z,44.51
2022-11-25T03:07:40.609Z,43.89
2022-11-25T03:10:07.036Z,44.25
2022-11-25T03:12:33.365Z,44.39
2022-11-25T03:14:59.655Z,44.15
2022-11-25T03:17:25.944Z,43.64
2022-11-25T03:19:52.255Z,43.71
2022-11-25T03:22:18.535Z,43.76
2022-11-25T03:24:44.823Z,43.96
2022-11-25T03:27:11.253Z,43.78
2022-11-25T03:29:37.542Z,44.40
2022-11-25T03:32:09.145Z,44.05
2022-11-25T03:34:36.107Z,43.62
2022-11-25T03:37:02.546Z,43.71
2022-11-25T03:39:28.869Z,43.59
2022-11-25T03:41:55.190Z,43.72
2022-11-25T03:44:21.462Z,43.61
2022-11-25T03:46:47.748Z,43.43
2022-11-25T03:49:14.038Z,43.87
2022-11-25T03:51:40.384Z,44.14
2022-11-25T03:54:06.679Z,44.53
2022-11-25T03:56:33.257Z,44.40
2022-11-25T03:58:59.518Z,44.09
2022-11-25T04:01:25.816Z,43.97
2022-11-25T04:03:52.175Z,43.78
2022-11-25T04:06:20.055Z,43.22
2022-11-25T04:08:46.442Z,43.51
2022-11-25T04:11:12.704Z,44.06
2022-11-25T04:13:39.044Z,43.69
2022-11-25T04:16:05.359Z,43.78
2022-11-25T04:18:31.651Z,44.58
2022-11-25T04:20:58.173Z,44.71
2022-11-25T04:23:24.428Z,45.24
2022-11-25T04:25:50.892Z,44.86
2022-11-25T04:28:17.177Z,44.14
2022-11-25T04:30:43.484Z,43.83
2022-11-25T04:33:09.784Z,43.69
2022-11-25T04:35:36.053Z,44.08
2022-11-25T04:38:02.328Z,44.46
2022-11-25T04:40:28.642Z,44.04
2022-11-25T04:43:01.577Z,43.98
2022-11-25T04:45:45.338Z,43.33
2022-11-25T04:48:16.178Z,43.63
2022-11-25T04:50:42.432Z,43.44
2022-11-25T04:53:08.697Z,43.18
2022-11-25T04:55:34.986Z,43.21
2022-11-25T04:58:01.295Z,43.93
2022-11-25T05:00:27.553Z,44.01
2022-11-25T05:02:53.917Z,44.19
2022-11-25T05:05:20.225Z,43.56
2022-11-25T05:07:46.563Z,43.05
2022-11-25T05:10:12.907Z,42.42
2022-11-25T05:12:39.215Z,42.99
2022-11-25T05:15:05.885Z,43.01
2022-11-25T05:17:32.202Z,44.46
2022-11-25T05:19:58.506Z,44.27
2022-11-25T05:22:25.640Z,44.45
2022-11-25T05:24:51.900Z,44.47
2022-11-25T05:27:18.266Z,43.20
2022-11-25T05:29:44.529Z,43.54
2022-11-25T05:32:10.807Z,43.62
2022-11-25T05:34:37.496Z,42.77
2022-11-25T05:37:04.202Z,42.50
2022-11-25T05:39:30.500Z,43.34
2022-11-25T05:41:58.436Z,42.79
2022-11-25T05:44:24.712Z,43.74
2022-11-25T05:46:51.297Z,43.19
2022-11-25T05:49:17.831Z,42.62
2022-11-25T05:51:44.311Z,43.03
2022-11-25T05:54:10.651Z,43.02
2022-11-25T05:56:37.048Z,43.05
2022-11-25T05:59:03.669Z,42.82
2022-11-25T06:01:30.006Z,42.81
2022-11-25T06:03:59.196Z,42.58
2022-11-25T06:06:25.472Z,43.27
2022-11-25T06:08:51.765Z,42.76
2022-11-25T06:11:18.045Z,42.62
2022-11-25T06:13:44.687Z,42.52
2022-11-25T06:16:14.947Z,42.94
2022-11-25T06:18:41.248Z,42.11
2022-11-25T06:21:07.816Z,42.28
2022-11-25T06:23:34.106Z,42.51
2022-11-25T06:26:19.546Z,42.50
2022-11-25T06:28:45.919Z,43.05
2022-11-25T06:31:13.157Z,43.42
2022-11-25T06:33:39.467Z,43.07
2022-11-25T06:36:06.371Z,42.73
2022-11-25T06:38:32.790Z,42.59
2022-11-25T06:41:00.486Z,42.25
2022-11-25T06:43:26.823Z,42.52
2022-11-25T06:45:53.221Z,42.45
2022-11-25T06:48:19.521Z,41.97
2022-11-25T06:50:45.789Z,42.14
2022-11-25T06:53:12.066Z,41.65
2022-11-25T06:55:38.350Z,42.31
2022-11-25T06:58:28.263Z,42.29
2022-11-25T07:00:50.938Z,41.75
2022-11-25T07:03:17.283Z,41.26
2022-11-25T07:05:43.666Z,42.02
2022-11-25T07:08:09.924Z,41.26
2022-11-25T07:10:36.188Z,41.82
2022-11-25T07:13:02.460Z,42.95
2022-11-25T07:15:28.734Z,42.58
2022-11-25T07:17:55.032Z,42.48
2022-11-25T07:20:21.348Z,42.22
2022-11-25T07:22:47.623Z,42.74
2022-11-25T07:25:13.900Z,42.76
2022-11-25T07:27:40.184Z,42.99
2022-11-25T07:32:53.060Z,43.97
2022-11-25T07:35:19.342Z,44.08
2022-11-25T07:37:45.706Z,44.43
2022-11-25T07:40:12.329Z,42.70
2022-11-25T07:42:38.650Z,43.15
2022-11-25T07:45:05.111Z,42.45
2022-11-25T07:47:33.572Z,43.20
2022-11-25T07:49:59.889Z,42.36
2022-11-25T07:52:26.159Z,43.21
2022-11-25T07:54:53.012Z,42.92
2022-11-25T07:57:19.305Z,43.34
2022-11-25T07:59:45.714Z,42.62
2022-11-25T08:02:12.166Z,43.20
2022-11-25T08:04:38.494Z,41.99
2022-11-25T08:07:04.789Z,42.54
2022-11-25T08:09:31.076Z,42.18
2022-11-25T08:11:58.120Z,41.20
2022-11-25T08:14:25.785Z,41.85
2022-11-25T08:16:52.220Z,40.83
2022-11-25T08:19:18.639Z,40.65
2022-11-25T08:21:44.938Z,40.66
2022-11-25T08:24:18.861Z,40.75
2022-11-25T08:26:45.181Z,42.45
2022-11-25T08:29:12.731Z,42.36
2022-11-25T08:31:39.105Z,43.25
2022-11-25T08:34:05.657Z,42.98
2022-11-25T08:36:31.941Z,42.08
2022-11-25T08:38:58.731Z,41.44
2022-11-25T08:41:25.031Z,40.94
2022-11-25T08:43:51.294Z,40.86
2022-11-25T08:46:24.745Z,40.51
2022-11-25T08:48:51.123Z,40.59
2022-11-25T08:51:18.668Z,41.28
2022-11-25T08:53:45.088Z,41.55
2022-11-25T08:56:11.529Z,39.11
2022-11-25T08:58:37.823Z,42.56
2022-11-25T09:01:04.569Z,43.57
2022-11-25T09:03:38.517Z,42.92
2022-11-25T09:06:05.076Z,42.57
2022-11-25T09:08:31.547Z,42.88
2022-11-25T09:10:58.026Z,42.78
2022-11-25T09:13:24.357Z,42.62
2022-11-25T09:15:50.695Z,42.53
2022-11-25T09:18:19.052Z,42.35
2022-11-25T09:20:45.337Z,41.78
2022-11-25T09:23:11.617Z,41.69
2022-11-25T09:25:37.893Z,41.49
2022-11-25T09:28:04.451Z,42.06
2022-11-25T09:30:30.765Z,41.92
2022-11-25T09:32:57.072Z,40.37
2022-11-25T09:35:23.430Z,41.33
2022-11-25T09:37:49.713Z,42.87
2022-11-25T09:40:19.300Z,41.83
2022-11-25T09:43:07.110Z,44.46
2022-11-25T09:46:11.964Z,43.67
2022-11-25T09:48:47.281Z,43.03
2022-11-25T09:51:22.329Z,43.86
2022-11-25T09:53:52.783Z,44.38
2022-11-25T09:56:34.989Z,44.12
2022-11-25T09:59:18.356Z,42.63
2022-11-25T10:01:54.549Z,41.15
2022-11-25T10:04:50.057Z,42.81
2022-11-25T10:07:22.916Z,42.49
2022-11-25T10:09:49.182Z,42.53
2022-11-25T10:12:21.659Z,44.21
2022-11-25T10:14:55.725Z,45.83
2022-11-25T10:17:30.849Z,47.91
2022-11-25T10:19:59.591Z,47.22
2022-11-25T10:22:27.092Z,42.74
2022-11-25T10:24:54.798Z,39.71
2022-11-25T10:27:23.203Z,40.65
2022-11-25T10:29:52.266Z,42.10
2022-11-25T10:32:19.526Z,41.61
2022-11-25T10:34:47.207Z,41.71
2022-11-25T10:37:14.575Z,41.71
2022-11-25T10:39:40.855Z,42.90
2022-11-25T10:42:20.901Z,42.64
2022-11-25T10:44:47.217Z,41.66
2022-11-25T10:47:28.994Z,42.24
2022-11-25T10:50:14.115Z,41.61
2022-11-25T10:52:59.188Z,42.92
2022-11-25T10:55:26.266Z,42.48
2022-11-25T10:57:52.880Z,43.48
2022-11-25T11:00:25.055Z,42.98
2022-11-25T11:02:51.404Z,42.56
2022-11-25T11:05:19.144Z,42.91
2022-11-25T11:07:46.030Z,42.99
2022-11-25T11:10:24.740Z,42.53
2022-11-25T11:12:57.256Z,41.26
2022-11-25T11:15:27.420Z,41.15
2022-11-25T11:17:54.070Z,41.63
2022-11-25T11:20:23.794Z,42.81
2022-11-25T11:22:55.063Z,43.71
2022-11-25T11:25:21.327Z,44.03
2022-11-25T11:27:47.612Z,44.32
2022-11-25T11:30:14.762Z,44.38
2022-11-25T11:32:42.431Z,44.30
2022-11-25T11:35:18.689Z,42.59
2022-11-25T11:37:45.727Z,42.71
2022-11-25T11:40:21.011Z,40.47
2022-11-25T11:43:05.667Z,39.62
2022-11-25T11:45:34.993Z,39.49
2022-11-25T11:48:09.188Z,40.21
2022-11-25T11:50:40.258Z,40.07
2022-11-25T11:53:10.992Z,40.80
2022-11-25T11:56:27.039Z,40.38
2022-11-25T11:58:51.067Z,39.73
2022-11-25T12:01:35.702Z,40.12
2022-11-25T12:04:14.888Z,40.53
2022-11-25T12:06:41.232Z,39.58
2022-11-25T12:09:12.598Z,39.46
2022-11-25T12:11:40.373Z,39.37
2022-11-25T12:14:11.761Z,40.27
2022-11-25T12:16:40.612Z,40.38
2022-11-25T12:19:06.883Z,39.28
2022-11-25T12:21:48.475Z,39.02
2022-11-25T12:24:33.861Z,38.78
2022-11-25T12:27:00.312Z,38.14
2022-11-25T12:29:37.112Z,39.11
2022-11-25T12:32:15.499Z,39.11
2022-11-25T12:34:44.517Z,38.98
2022-11-25T12:37:15.193Z,38.64
2022-11-25T12:39:46.444Z,39.54
2022-11-25T12:42:14.113Z,39.22
2022-11-25T12:44:43.559Z,39.29
2022-11-25T12:47:10.440Z,39.00
2022-11-25T12:49:46.480Z,38.47
2022-11-25T12:52:32.969Z,39.56
2022-11-25T12:54:59.181Z,39.19
2022-11-25T12:57:31.477Z,39.91
2022-11-25T13:00:39.338Z,38.04
2022-11-25T13:02:58.783Z,39.58
2022-11-25T13:05:41.129Z,39.16
2022-11-25T13:08:16.845Z,39.21
2022-11-25T13:11:02.259Z,40.14
2022-11-25T13:13:47.406Z,39.19
2022-11-25T13:16:14.463Z,38.50
2022-11-25T13:18:41.536Z,38.79
2022-11-25T13:21:11.626Z,39.29
2022-11-25T13:23:56.026Z,38.56
2022-11-25T13:26:28.273Z,39.87
2022-11-25T13:28:54.929Z,39.63
2022-11-25T13:31:22.561Z,38.90
2022-11-25T13:33:48.839Z,39.70
2022-11-25T13:36:15.886Z,39.10
2022-11-25T13:38:51.183Z,38.43
2022-11-25T13:41:20.894Z,38.74
2022-11-25T13:43:53.390Z,38.38
2022-11-25T13:46:28.841Z,38.41
2022-11-25T13:48:55.131Z,38.48
2022-11-25T13:51:21.757Z,38.85
2022-11-25T13:53:54.705Z,39.36
2022-11-25T13:56:25.131Z,39.74
2022-11-25T13:59:09.802Z,38.14
2022-11-25T14:01:36.617Z,39.43
2022-11-25T14:04:09.016Z,37.75
2022-11-25T14:06:38.288Z,39.53
2022-11-25T14:09:05.254Z,38.80
2022-11-25T14:11:49.497Z,39.39
2022-11-25T14:14:34.561Z,39.84
2022-11-25T14:17:13.125Z,41.42
2022-11-25T14:19:53.495Z,39.92
2022-11-25T14:22:39.757Z,40.62
2022-11-25T14:25:12.095Z,40.64
2022-11-25T14:27:38.388Z,41.25
2022-11-25T14:30:05.475Z,40.99
2022-11-25T14:32:39.624Z,40.23
2022-11-25T14:35:05.875Z,40.55
2022-11-25T14:37:38.218Z,41.00
2022-11-25T14:40:08.132Z,41.97
2022-11-25T14:42:37.803Z,42.12
2022-11-25T14:45:04.281Z,41.14
2022-11-25T14:47:37.533Z,40.95
2022-11-25T14:50:27.196Z,40.99
2022-11-25T14:52:51.760Z,41.05
2022-11-25T14:55:28.177Z,40.70
2022-11-25T14:57:54.543Z,42.24
2022-11-25T15:00:21.126Z,42.95
2022-11-25T15:02:54.912Z,43.23
2022-11-25T15:05:22.070Z,43.70
2022-11-25T15:08:00.401Z,43.76
2022-11-25T15:10:33.682Z,44.06
2022-11-25T15:13:00.226Z,45.03
2022-11-25T15:15:26.876Z,43.77
2022-11-25T15:17:55.090Z,42.25
2022-11-25T15:20:21.354Z,42.69
2022-11-25T15:22:48.309Z,42.98
2022-11-25T15:25:14.751Z,43.70
2022-11-25T15:27:51.266Z,43.59
2022-11-25T15:30:19.005Z,43.58
2022-11-25T15:32:45.306Z,43.85
2022-11-25T15:35:15.612Z,44.80
2022-11-25T15:37:41.911Z,45.05
2022-11-25T15:40:27.019Z,43.67
2022-11-25T15:42:53.285Z,43.67
2022-11-25T15:45:20.233Z,45.24
2022-11-25T15:47:46.554Z,45.42
2022-11-25T15:50:22.473Z,46.15
2022-11-25T15:52:49.889Z,45.84
2022-11-25T15:55:35.537Z,47.43
2022-11-25T15:58:06.883Z,46.87
2022-11-25T16:00:34.928Z,46.53
2022-11-25T16:03:01.369Z,46.29
2022-11-25T16:05:31.790Z,46.81
2022-11-25T16:07:59.708Z,47.13
2022-11-25T16:10:27.442Z,46.86
2022-11-25T16:13:14.690Z,47.66
2022-11-25T16:15:48.159Z,48.06
2022-11-25T16:18:32.899Z,48.70
2022-11-25T16:21:03.024Z,50.78
2022-11-25T16:23:29.369Z,51.08
2022-11-25T16:26:02.252Z,50.39
2022-11-25T16:28:28.805Z,50.90
2022-11-25T16:30:59.351Z,51.50
2022-11-25T16:33:25.837Z,50.93
2022-11-25T16:35:52.118Z,50.13
2022-11-25T16:38:18.380Z,50.85
2022-11-25T16:40:44.653Z,50.64
2022-11-25T16:43:15.569Z,49.89
2022-11-25T16:45:42.203Z,50.63
2022-11-25T16:48:13.890Z,50.37
2022-11-25T16:50:40.159Z,49.85
2022-11-25T16:53:06.448Z,50.17
2022-11-25T16:55:32.916Z,49.93
2022-11-25T16:57:59.189Z,49.62
2022-11-25T17:00:25.491Z,49.86
2022-11-25T17:02:51.887Z,50.32
2022-11-25T17:05:21.933Z,49.50
2022-11-25T17:07:48.337Z,49.67
2022-11-25T17:10:14.666Z,50.37
2022-11-25T17:12:40.950Z,48.95
2022-11-25T17:15:08.370Z,51.10
2022-11-25T17:17:34.790Z,51.81
2022-11-25T17:20:01.245Z,51.20
2022-11-25T17:22:27.617Z,50.97
2022-11-25T17:24:54.090Z,51.00
2022-11-25T17:27:29.798Z,52.61
2022-11-25T17:29:56.209Z,52.01
2022-11-25T17:32:22.557Z,52.51
2022-11-25T17:34:49.026Z,52.08
2022-11-25T17:37:15.882Z,51.25
2022-11-25T17:39:42.173Z,50.90
2022-11-25T17:42:11.245Z,50.30
2022-11-25T17:44:39.950Z,50.85
2022-11-25T17:47:09.148Z,51.21
2022-11-25T17:49:35.436Z,51.77
2022-11-25T17:52:01.768Z,53.66
2022-11-25T17:54:28.058Z,54.23
2022-11-25T17:56:54.341Z,55.25
2022-11-25T17:59:24.199Z,54.85
2022-11-25T18:01:50.570Z,53.96
2022-11-25T18:04:26.369Z,53.78
2022-11-25T18:06:52.704Z,53.31
2022-11-25T18:09:18.978Z,52.90
2022-11-25T18:11:47.074Z,54.32
2022-11-25T18:14:14.181Z,55.03
2022-11-25T18:16:41.335Z,55.29
2022-11-25T18:19:11.528Z,56.09
2022-11-25T18:21:37.850Z,55.65
2022-11-25T18:24:04.293Z,56.16
2022-11-25T18:26:30.688Z,55.41
2022-11-25T18:28:56.969Z,55.04
2022-11-25T18:31:23.565Z,54.76
2022-11-25T18:33:49.894Z,53.61
2022-11-25T18:36:16.342Z,54.17
2022-11-25T18:38:42.645Z,53.80
2022-11-25T18:41:10.160Z,53.75
2022-11-25T18:43:37.498Z,53.33
2022-11-25T18:46:04.870Z,53.96
2022-11-25T18:48:31.243Z,54.21
2022-11-25T18:50:57.641Z,54.56
2022-11-25T18:53:24.073Z,55.36
2022-11-25T18:55:50.352Z,55.60
2022-11-25T18:58:17.663Z,55.65
2022-11-25T19:00:44.153Z,56.07
2022-11-25T19:03:15.757Z,55.63
2022-11-25T19:05:42.042Z,55.68
2022-11-25T19:08:08.320Z,55.27
2022-11-25T19:10:35.315Z,55.36
2022-11-25T19:13:02.258Z,55.13
2022-11-25T19:15:28.553Z,55.29
2022-11-25T19:17:58.756Z,55.78
2022-11-25T19:20:26.221Z,55.26
2022-11-25T19:22:55.582Z,55.81
2022-11-25T19:25:24.434Z,55.94
2022-11-25T19:27:51.732Z,55.35
2022-11-25T19:30:19.099Z,54.15
2022-11-25T19:32:46.121Z,54.70
2022-11-25T19:35:13.750Z,57.06
2022-11-25T19:37:40.392Z,57.56
2022-11-25T19:40:12.245Z,58.77
2022-11-25T19:42:38.549Z,57.72
2022-11-25T19:45:04.940Z,57.13
2022-11-25T19:47:31.238Z,56.47
2022-11-25T19:49:58.158Z,56.08
2022-11-25T19:52:35.776Z,56.05
2022-11-25T19:55:02.948Z,55.38
2022-11-25T19:57:29.280Z,55.95
2022-11-25T19:59:55.570Z,55.12
2022-11-25T20:02:23.069Z,54.29
2022-11-25T20:04:50.556Z,54.57
2022-11-25T20:07:17.281Z,55.13
2022-11-25T20:09:43.594Z,54.94
2022-11-25T20:12:15.709Z,54.89
2022-11-25T20:14:41.995Z,54.21
2022-11-25T20:17:11.926Z,53.97
2022-11-25T20:19:38.199Z,54.74
2022-11-25T20:22:04.459Z,54.34
2022-11-25T20:24:30.735Z,53.77
2022-11-25T20:26:57.009Z,54.53
2022-11-25T20:29:28.913Z,54.73
2022-11-25T20:31:56.653Z,54.81
2022-11-25T20:34:23.025Z,54.71
2022-11-25T20:36:49.300Z,53.99
2022-11-25T20:39:16.269Z,53.74
2022-11-25T20:41:42.569Z,53.30
2022-11-25T20:44:09.215Z,53.19
2022-11-25T20:46:35.528Z,54.04
2022-11-25T20:49:02.120Z,54.08
2022-11-25T20:51:28.429Z,53.80
2022-11-25T20:53:58.041Z,54.17
2022-11-25T20:56:25.111Z,54.42
2022-11-25T20:58:51.424Z,54.18
2022-11-25T21:01:20.490Z,53.72
2022-11-25T21:03:47.457Z,53.31
2022-11-25T21:06:17.508Z,53.22
2022-11-25T21:08:45.323Z,54.06
2022-11-25T21:11:11.597Z,54.39
2022-11-25T21:13:37.872Z,55.00
2022-11-25T21:16:04.286Z,54.47
2022-11-25T21:18:30.594Z,55.09
2022-11-25T21:20:57.197Z,55.54
2022-11-25T21:23:27.676Z,55.41
2022-11-25T21:25:53.973Z,55.33
2022-11-25T21:28:20.818Z,54.64
2022-11-25T21:30:47.239Z,54.21
2022-11-25T21:33:13.669Z,54.17
2022-11-25T21:35:43.566Z,53.77
2022-11-25T21:38:14.734Z,53.64
2022-11-25T21:40:41.908Z,53.54
2022-11-25T21:43:22.039Z,53.41
2022-11-25T21:45:48.804Z,53.87
2022-11-25T21:48:22.019Z,53.92
2022-11-25T21:50:48.305Z,53.62
2022-11-25T21:53:14.597Z,53.32
2022-11-25T21:55:40.887Z,54.04
2022-11-25T21:58:12.424Z,54.21
2022-11-25T22:00:38.726Z,54.41
2022-11-25T22:03:05.925Z,54.60
2022-11-25T22:05:32.225Z,54.26
2022-11-25T22:07:59.517Z,53.81
2022-11-25T22:10:25.904Z,53.71
2022-11-25T22:12:52.201Z,53.77
2022-11-25T22:15:19.231Z,54.77
2022-11-25T22:17:45.618Z,54.73
2022-11-25T22:20:25.521Z,55.42
2022-11-25T22:22:51.851Z,55.08
2022-11-25T22:25:18.172Z,55.46
2022-11-25T22:27:45.398Z,55.61
2022-11-25T22:30:15.280Z,55.60
2022-11-25T22:32:41.545Z,55.00
2022-11-25T22:35:14.997Z,54.63
2022-11-25T22:37:41.267Z,53.99
2022-11-25T22:40:08.243Z,53.62
2022-11-25T22:42:34.613Z,53.00
2022-11-25T22:45:01.069Z,52.78
2022-11-25T22:47:29.224Z,52.62
2022-11-25T22:49:55.532Z,52.19
2022-11-25T22:52:24.848Z,53.18
2022-11-25T22:54:51.135Z,56.20
2022-11-25T22:57:17.601Z,58.34
2022-11-25T22:59:43.934Z,59.70
2022-11-25T23:02:16.161Z,57.99
2022-11-25T23:04:42.477Z,56.15
2022-11-25T23:07:10.672Z,55.25
2022-11-25T23:09:36.979Z,55.11
2022-11-25T23:12:03.803Z,54.82
2022-11-25T23:14:30.068Z,54.24
2022-11-25T23:16:56.435Z,53.48
2022-11-25T23:19:22.733Z,53.49
2022-11-25T23:21:49.019Z,54.23
2022-11-25T23:24:15.763Z,54.60
2022-11-25T23:26:42.364Z,54.46
2022-11-25T23:29:08.669Z,54.03
2022-11-25T23:31:35.616Z,54.34
2022-11-25T23:34:02.085Z,53.58
2022-11-25T23:36:47.217Z,53.45
2022-11-25T23:39:22.998Z,53.62
2022-11-25T23:41:49.313Z,53.77
2022-11-25T23:44:24.709Z,53.26
2022-11-25T23:46:51.681Z,53.07
2022-11-25T23:49:22.829Z,52.41
2022-11-25T23:51:49.142Z,52.48
2022-11-25T23:54:15.493Z,52.55
2022-11-25T23:56:42.133Z,52.45
2022-11-25T23:59:14.547Z,52.03
